sensor_id;sensor_type;location;lat;lon;timestamp;P1;durP1;ratioP1;P2;durP2;ratioP2
51921;SDS011;37948;53.260;6.394;2023-01-04T00:00:58;10.98;;;2.72;;
51921;SDS011;37948;53.260;6.394;2023-01-04T00:03:27;6.63;;;2.90;;
51921;SDS011;37948;53.260;6.394;2023-01-04T00:05:56;6.65;;;2.55;;
51921;SDS011;37948;53.260;6.394;2023-01-04T00:08:22;9.25;;;2.67;;
51921;SDS011;37948;53.260;6.394;2023-01-04T00:10:48;7.20;;;2.75;;
51921;SDS011;37948;53.260;6.394;2023-01-04T00:13:14;5.60;;;2.60;;
51921;SDS011;37948;53.260;6.394;2023-01-04T00:15:39;10.40;;;3.33;;
51921;SDS011;37948;53.260;6.394;2023-01-04T00:18:05;10.20;;;3.20;;
51921;SDS011;37948;53.260;6.394;2023-01-04T00:20:30;6.15;;;2.80;;
51921;SDS011;37948;53.260;6.394;2023-01-04T00:22:56;9.70;;;2.88;;
51921;SDS011;37948;53.260;6.394;2023-01-04T00:25:22;12.50;;;2.85;;
51921;SDS011;37948;53.260;6.394;2023-01-04T00:27:49;7.25;;;2.70;;
51921;SDS011;37948;53.260;6.394;2023-01-04T00:30:15;9.27;;;2.83;;
51921;SDS011;37948;53.260;6.394;2023-01-04T00:32:41;10.77;;;3.53;;
51921;SDS011;37948;53.260;6.394;2023-01-04T00:35:07;9.13;;;3.15;;
51921;SDS011;37948;53.260;6.394;2023-01-04T00:37:33;6.80;;;3.55;;
51921;SDS011;37948;53.260;6.394;2023-01-04T00:39:59;13.20;;;3.40;;
51921;SDS011;37948;53.260;6.394;2023-01-04T00:42:25;6.15;;;2.92;;
51921;SDS011;37948;53.260;6.394;2023-01-04T00:44:50;8.27;;;2.92;;
51921;SDS011;37948;53.260;6.394;2023-01-04T00:47:16;5.85;;;3.00;;
51921;SDS011;37948;53.260;6.394;2023-01-04T00:49:41;9.13;;;3.22;;
51921;SDS011;37948;53.260;6.394;2023-01-04T00:52:07;7.50;;;3.05;;
51921;SDS011;37948;53.260;6.394;2023-01-04T00:54:33;4.72;;;2.72;;
51921;SDS011;37948;53.260;6.394;2023-01-04T00:56:59;5.22;;;3.03;;
51921;SDS011;37948;53.260;6.394;2023-01-04T00:59:25;9.07;;;3.30;;
51921;SDS011;37948;53.260;6.394;2023-01-04T01:01:51;4.22;;;2.67;;
51921;SDS011;37948;53.260;6.394;2023-01-04T01:04:18;7.68;;;3.78;;
51921;SDS011;37948;53.260;6.394;2023-01-04T01:06:46;10.25;;;3.13;;
51921;SDS011;37948;53.260;6.394;2023-01-04T01:09:13;7.40;;;2.85;;
51921;SDS011;37948;53.260;6.394;2023-01-04T01:11:39;7.50;;;3.05;;
51921;SDS011;37948;53.260;6.394;2023-01-04T01:14:05;11.48;;;2.80;;
51921;SDS011;37948;53.260;6.394;2023-01-04T01:16:32;10.15;;;3.10;;
51921;SDS011;37948;53.260;6.394;2023-01-04T01:18:57;7.93;;;3.17;;
51921;SDS011;37948;53.260;6.394;2023-01-04T01:21:24;6.88;;;3.35;;
51921;SDS011;37948;53.260;6.394;2023-01-04T01:23:51;5.88;;;2.95;;
51921;SDS011;37948;53.260;6.394;2023-01-04T01:26:18;8.00;;;2.92;;
51921;SDS011;37948;53.260;6.394;2023-01-04T01:28:45;5.25;;;2.72;;
51921;SDS011;37948;53.260;6.394;2023-01-04T01:31:13;7.28;;;2.90;;
51921;SDS011;37948;53.260;6.394;2023-01-04T01:33:43;10.35;;;3.28;;
51921;SDS011;37948;53.260;6.394;2023-01-04T01:36:11;4.68;;;2.53;;
51921;SDS011;37948;53.260;6.394;2023-01-04T01:38:38;7.72;;;3.00;;
51921;SDS011;37948;53.260;6.394;2023-01-04T01:41:05;5.07;;;2.97;;
51921;SDS011;37948;53.260;6.394;2023-01-04T01:46:15;7.82;;;2.83;;
51921;SDS011;37948;53.260;6.394;2023-01-04T01:48:55;6.60;;;2.75;;
51921;SDS011;37948;53.260;6.394;2023-01-04T01:51:24;5.97;;;3.00;;
51921;SDS011;37948;53.260;6.394;2023-01-04T01:53:53;4.05;;;2.65;;
51921;SDS011;37948;53.260;6.394;2023-01-04T01:56:25;4.28;;;2.30;;
51921;SDS011;37948;53.260;6.394;2023-01-04T01:58:52;6.40;;;2.95;;
51921;SDS011;37948;53.260;6.394;2023-01-04T02:01:19;4.65;;;2.58;;
51921;SDS011;37948;53.260;6.394;2023-01-04T02:03:45;3.20;;;2.55;;
51921;SDS011;37948;53.260;6.394;2023-01-04T02:06:12;3.80;;;2.45;;
51921;SDS011;37948;53.260;6.394;2023-01-04T02:08:42;5.30;;;2.38;;
51921;SDS011;37948;53.260;6.394;2023-01-04T02:11:09;4.70;;;2.22;;
51921;SDS011;37948;53.260;6.394;2023-01-04T02:13:35;5.55;;;2.17;;
51921;SDS011;37948;53.260;6.394;2023-01-04T02:19:15;3.67;;;1.88;;
51921;SDS011;37948;53.260;6.394;2023-01-04T02:33:37;1.83;;;1.58;;
51921;SDS011;37948;53.260;6.394;2023-01-04T02:41:50;3.30;;;1.67;;
51921;SDS011;37948;53.260;6.394;2023-01-04T02:44:30;1.73;;;1.58;;
51921;SDS011;37948;53.260;6.394;2023-01-04T02:47:36;2.30;;;1.58;;
51921;SDS011;37948;53.260;6.394;2023-01-04T02:50:29;2.35;;;1.55;;
51921;SDS011;37948;53.260;6.394;2023-01-04T02:53:01;1.88;;;1.35;;
51921;SDS011;37948;53.260;6.394;2023-01-04T03:00:56;2.45;;;1.30;;
51921;SDS011;37948;53.260;6.394;2023-01-04T03:03:53;2.25;;;0.95;;
51921;SDS011;37948;53.260;6.394;2023-01-04T03:07:06;2.22;;;1.20;;
51921;SDS011;37948;53.260;6.394;2023-01-04T03:09:39;1.85;;;1.10;;
51921;SDS011;37948;53.260;6.394;2023-01-04T03:12:10;1.20;;;1.10;;
51921;SDS011;37948;53.260;6.394;2023-01-04T03:15:00;1.13;;;1.00;;
51921;SDS011;37948;53.260;6.394;2023-01-04T03:17:36;2.97;;;1.02;;
51921;SDS011;37948;53.260;6.394;2023-01-04T03:20:07;1.45;;;1.35;;
51921;SDS011;37948;53.260;6.394;2023-01-04T03:22:36;1.15;;;1.08;;
51921;SDS011;37948;53.260;6.394;2023-01-04T03:25:30;2.65;;;1.10;;
51921;SDS011;37948;53.260;6.394;2023-01-04T03:28:20;2.65;;;1.00;;
51921;SDS011;37948;53.260;6.394;2023-01-04T03:33:59;1.60;;;1.08;;
51921;SDS011;37948;53.260;6.394;2023-01-04T03:45:24;1.87;;;1.73;;
51921;SDS011;37948;53.260;6.394;2023-01-04T03:48:13;3.53;;;1.30;;
51921;SDS011;37948;53.260;6.394;2023-01-04T03:50:57;1.60;;;1.50;;
51921;SDS011;37948;53.260;6.394;2023-01-04T03:53:28;5.13;;;1.50;;
51921;SDS011;37948;53.260;6.394;2023-01-04T03:55:57;11.35;;;1.60;;
51921;SDS011;37948;53.260;6.394;2023-01-04T03:58:24;1.73;;;1.63;;
51921;SDS011;37948;53.260;6.394;2023-01-04T04:00:50;1.60;;;1.50;;
51921;SDS011;37948;53.260;6.394;2023-01-04T04:03:16;2.45;;;2.05;;
51921;SDS011;37948;53.260;6.394;2023-01-04T04:05:42;2.10;;;2.00;;
51921;SDS011;37948;53.260;6.394;2023-01-04T04:08:27;2.38;;;2.28;;
51921;SDS011;37948;53.260;6.394;2023-01-04T04:10:57;2.30;;;2.08;;
51921;SDS011;37948;53.260;6.394;2023-01-04T04:13:44;2.83;;;2.53;;
51921;SDS011;37948;53.260;6.394;2023-01-04T04:16:10;2.67;;;2.47;;
51921;SDS011;37948;53.260;6.394;2023-01-04T04:18:36;2.97;;;2.72;;
51921;SDS011;37948;53.260;6.394;2023-01-04T04:21:02;3.38;;;2.85;;
51921;SDS011;37948;53.260;6.394;2023-01-04T04:23:27;3.30;;;3.10;;
51921;SDS011;37948;53.260;6.394;2023-01-04T04:25:53;3.80;;;3.50;;
51921;SDS011;37948;53.260;6.394;2023-01-04T04:28:18;6.03;;;3.30;;
51921;SDS011;37948;53.260;6.394;2023-01-04T04:30:44;3.42;;;3.13;;
51921;SDS011;37948;53.260;6.394;2023-01-04T04:33:12;3.00;;;2.80;;
51921;SDS011;37948;53.260;6.394;2023-01-04T04:35:38;2.65;;;2.55;;
51921;SDS011;37948;53.260;6.394;2023-01-04T04:38:03;3.03;;;2.70;;
51921;SDS011;37948;53.260;6.394;2023-01-04T04:40:29;3.58;;;3.00;;
51921;SDS011;37948;53.260;6.394;2023-01-04T04:43:13;2.97;;;2.78;;
51921;SDS011;37948;53.260;6.394;2023-01-04T04:45:39;6.68;;;3.00;;
51921;SDS011;37948;53.260;6.394;2023-01-04T04:48:04;3.15;;;2.50;;
51921;SDS011;37948;53.260;6.394;2023-01-04T04:50:30;4.18;;;3.10;;
51921;SDS011;37948;53.260;6.394;2023-01-04T04:52:55;3.20;;;2.90;;
51921;SDS011;37948;53.260;6.394;2023-01-04T04:55:21;3.72;;;3.15;;
51921;SDS011;37948;53.260;6.394;2023-01-04T04:57:47;5.28;;;3.65;;
51921;SDS011;37948;53.260;6.394;2023-01-04T05:00:12;4.95;;;3.30;;
51921;SDS011;37948;53.260;6.394;2023-01-04T05:02:38;5.57;;;3.53;;
51921;SDS011;37948;53.260;6.394;2023-01-04T05:05:04;5.45;;;3.45;;
51921;SDS011;37948;53.260;6.394;2023-01-04T05:07:30;4.60;;;3.17;;
51921;SDS011;37948;53.260;6.394;2023-01-04T05:09:55;3.25;;;2.95;;
51921;SDS011;37948;53.260;6.394;2023-01-04T05:12:21;5.47;;;3.17;;
51921;SDS011;37948;53.260;6.394;2023-01-04T05:15:05;3.17;;;2.97;;
51921;SDS011;37948;53.260;6.394;2023-01-04T05:17:31;4.38;;;3.60;;
51921;SDS011;37948;53.260;6.394;2023-01-04T05:19:56;5.15;;;3.90;;
51921;SDS011;37948;53.260;6.394;2023-01-04T05:22:22;4.78;;;3.90;;
51921;SDS011;37948;53.260;6.394;2023-01-04T05:24:48;4.32;;;3.40;;
51921;SDS011;37948;53.260;6.394;2023-01-04T05:27:13;5.43;;;3.60;;
51921;SDS011;37948;53.260;6.394;2023-01-04T05:29:39;3.80;;;3.35;;
51921;SDS011;37948;53.260;6.394;2023-01-04T05:32:23;2.60;;;2.50;;
51921;SDS011;37948;53.260;6.394;2023-01-04T05:34:49;5.63;;;3.00;;
51921;SDS011;37948;53.260;6.394;2023-01-04T05:37:14;5.32;;;2.80;;
51921;SDS011;37948;53.260;6.394;2023-01-04T05:39:40;3.65;;;2.38;;
51921;SDS011;37948;53.260;6.394;2023-01-04T05:42:05;4.55;;;2.13;;
51921;SDS011;37948;53.260;6.394;2023-01-04T05:44:53;3.45;;;2.28;;
51921;SDS011;37948;53.260;6.394;2023-01-04T05:47:21;2.88;;;2.40;;
51921;SDS011;37948;53.260;6.394;2023-01-04T05:49:47;4.10;;;2.30;;
51921;SDS011;37948;53.260;6.394;2023-01-04T05:52:12;2.55;;;2.35;;
51921;SDS011;37948;53.260;6.394;2023-01-04T05:54:38;3.30;;;2.17;;
51921;SDS011;37948;53.260;6.394;2023-01-04T05:57:04;2.30;;;1.77;;
51921;SDS011;37948;53.260;6.394;2023-01-04T05:59:29;1.60;;;1.50;;
51921;SDS011;37948;53.260;6.394;2023-01-04T06:01:55;1.80;;;1.70;;
51921;SDS011;37948;53.260;6.394;2023-01-04T06:04:20;1.75;;;1.60;;
51921;SDS011;37948;53.260;6.394;2023-01-04T06:06:46;2.55;;;1.70;;
51921;SDS011;37948;53.260;6.394;2023-01-04T06:09:12;1.52;;;1.40;;
51921;SDS011;37948;53.260;6.394;2023-01-04T06:11:37;1.83;;;1.73;;
51921;SDS011;37948;53.260;6.394;2023-01-04T06:14:03;1.92;;;1.55;;
51921;SDS011;37948;53.260;6.394;2023-01-04T06:16:29;2.83;;;1.80;;
51921;SDS011;37948;53.260;6.394;2023-01-04T06:18:54;3.67;;;1.80;;
51921;SDS011;37948;53.260;6.394;2023-01-04T06:21:20;3.28;;;1.80;;
51921;SDS011;37948;53.260;6.394;2023-01-04T06:23:45;1.80;;;1.70;;
51921;SDS011;37948;53.260;6.394;2023-01-04T06:26:11;2.85;;;1.90;;
51921;SDS011;37948;53.260;6.394;2023-01-04T06:28:37;2.40;;;1.88;;
51921;SDS011;37948;53.260;6.394;2023-01-04T06:31:05;4.60;;;1.95;;
51921;SDS011;37948;53.260;6.394;2023-01-04T06:33:32;4.82;;;2.17;;
51921;SDS011;37948;53.260;6.394;2023-01-04T06:35:58;1.92;;;1.50;;
51921;SDS011;37948;53.260;6.394;2023-01-04T06:38:24;3.25;;;1.63;;
51921;SDS011;37948;53.260;6.394;2023-01-04T06:40:50;3.38;;;1.10;;
51921;SDS011;37948;53.260;6.394;2023-01-04T06:43:16;1.33;;;0.88;;
51921;SDS011;37948;53.260;6.394;2023-01-04T06:45:42;2.40;;;1.30;;
51921;SDS011;37948;53.260;6.394;2023-01-04T06:48:07;4.35;;;1.50;;
51921;SDS011;37948;53.260;6.394;2023-01-04T06:50:33;3.63;;;1.42;;
51921;SDS011;37948;53.260;6.394;2023-01-04T06:52:59;2.25;;;1.38;;
51921;SDS011;37948;53.260;6.394;2023-01-04T06:55:25;2.58;;;1.27;;
51921;SDS011;37948;53.260;6.394;2023-01-04T06:57:50;5.43;;;1.45;;
51921;SDS011;37948;53.260;6.394;2023-01-04T07:00:16;4.07;;;1.40;;
51921;SDS011;37948;53.260;6.394;2023-01-04T07:02:42;6.10;;;1.52;;
51921;SDS011;37948;53.260;6.394;2023-01-04T07:05:07;5.50;;;2.00;;
51921;SDS011;37948;53.260;6.394;2023-01-04T07:07:33;5.40;;;1.60;;
51921;SDS011;37948;53.260;6.394;2023-01-04T07:09:59;6.60;;;1.80;;
51921;SDS011;37948;53.260;6.394;2023-01-04T07:12:26;7.30;;;2.40;;
51921;SDS011;37948;53.260;6.394;2023-01-04T07:14:51;8.18;;;2.85;;
51921;SDS011;37948;53.260;6.394;2023-01-04T07:17:17;6.97;;;3.22;;
51921;SDS011;37948;53.260;6.394;2023-01-04T07:19:43;10.90;;;3.55;;
51921;SDS011;37948;53.260;6.394;2023-01-04T07:22:08;14.88;;;3.53;;
51921;SDS011;37948;53.260;6.394;2023-01-04T07:24:34;12.48;;;3.03;;
51921;SDS011;37948;53.260;6.394;2023-01-04T07:27:00;10.57;;;2.88;;
51921;SDS011;37948;53.260;6.394;2023-01-04T07:29:25;8.25;;;3.03;;
51921;SDS011;37948;53.260;6.394;2023-01-04T07:31:52;12.10;;;3.10;;
51921;SDS011;37948;53.260;6.394;2023-01-04T07:34:18;8.18;;;3.38;;
51921;SDS011;37948;53.260;6.394;2023-01-04T07:36:46;8.05;;;2.65;;
51921;SDS011;37948;53.260;6.394;2023-01-04T07:39:12;16.95;;;3.63;;
51921;SDS011;37948;53.260;6.394;2023-01-04T07:41:38;10.82;;;2.55;;
51921;SDS011;37948;53.260;6.394;2023-01-04T07:44:05;9.13;;;2.00;;
51921;SDS011;37948;53.260;6.394;2023-01-04T07:46:32;10.40;;;2.30;;
51921;SDS011;37948;53.260;6.394;2023-01-04T07:48:58;10.52;;;2.47;;
51921;SDS011;37948;53.260;6.394;2023-01-04T07:51:24;5.22;;;2.03;;
51921;SDS011;37948;53.260;6.394;2023-01-04T07:53:50;13.15;;;2.97;;
51921;SDS011;37948;53.260;6.394;2023-01-04T07:56:16;12.13;;;2.70;;
51921;SDS011;37948;53.260;6.394;2023-01-04T07:58:42;9.15;;;2.78;;
51921;SDS011;37948;53.260;6.394;2023-01-04T08:01:12;7.28;;;2.80;;
51921;SDS011;37948;53.260;6.394;2023-01-04T08:03:43;6.70;;;2.42;;
51921;SDS011;37948;53.260;6.394;2023-01-04T08:06:11;6.10;;;2.67;;
51921;SDS011;37948;53.260;6.394;2023-01-04T08:08:37;8.82;;;2.13;;
51921;SDS011;37948;53.260;6.394;2023-01-04T08:11:04;7.53;;;2.95;;
51921;SDS011;37948;53.260;6.394;2023-01-04T08:13:31;8.88;;;2.70;;
51921;SDS011;37948;53.260;6.394;2023-01-04T08:15:57;7.00;;;2.00;;
51921;SDS011;37948;53.260;6.394;2023-01-04T08:18:22;7.95;;;2.00;;
51921;SDS011;37948;53.260;6.394;2023-01-04T08:20:48;9.60;;;2.20;;
51921;SDS011;37948;53.260;6.394;2023-01-04T08:23:14;5.80;;;1.95;;
51921;SDS011;37948;53.260;6.394;2023-01-04T08:25:40;4.30;;;1.58;;
51921;SDS011;37948;53.260;6.394;2023-01-04T08:28:05;7.15;;;1.80;;
51921;SDS011;37948;53.260;6.394;2023-01-04T08:30:31;10.95;;;3.05;;
51921;SDS011;37948;53.260;6.394;2023-01-04T08:32:57;4.63;;;1.80;;
51921;SDS011;37948;53.260;6.394;2023-01-04T08:35:23;5.20;;;1.83;;
51921;SDS011;37948;53.260;6.394;2023-01-04T08:37:49;3.38;;;1.90;;
51921;SDS011;37948;53.260;6.394;2023-01-04T08:40:14;7.20;;;2.17;;
51921;SDS011;37948;53.260;6.394;2023-01-04T08:42:40;6.82;;;2.28;;
51921;SDS011;37948;53.260;6.394;2023-01-04T08:45:06;6.72;;;1.92;;
51921;SDS011;37948;53.260;6.394;2023-01-04T08:47:32;6.70;;;1.60;;
51921;SDS011;37948;53.260;6.394;2023-01-04T08:49:58;3.95;;;1.80;;
51921;SDS011;37948;53.260;6.394;2023-01-04T08:52:24;6.10;;;1.88;;
51921;SDS011;37948;53.260;6.394;2023-01-04T08:54:50;6.88;;;1.80;;
51921;SDS011;37948;53.260;6.394;2023-01-04T08:57:16;7.75;;;1.55;;
51921;SDS011;37948;53.260;6.394;2023-01-04T08:59:42;9.80;;;1.75;;
51921;SDS011;37948;53.260;6.394;2023-01-04T09:02:29;2.97;;;1.30;;
51921;SDS011;37948;53.260;6.394;2023-01-04T09:04:53;7.55;;;1.60;;
51921;SDS011;37948;53.260;6.394;2023-01-04T09:07:23;9.20;;;2.38;;
51921;SDS011;37948;53.260;6.394;2023-01-04T09:09:52;8.98;;;3.08;;
51921;SDS011;37948;53.260;6.394;2023-01-04T09:12:17;12.07;;;2.85;;
51921;SDS011;37948;53.260;6.394;2023-01-04T09:14:43;12.48;;;3.10;;
51921;SDS011;37948;53.260;6.394;2023-01-04T09:17:09;11.35;;;2.55;;
51921;SDS011;37948;53.260;6.394;2023-01-04T09:19:34;11.52;;;2.60;;
51921;SDS011;37948;53.260;6.394;2023-01-04T09:22:00;16.98;;;4.07;;
51921;SDS011;37948;53.260;6.394;2023-01-04T09:24:26;18.10;;;3.55;;
51921;SDS011;37948;53.260;6.394;2023-01-04T09:26:51;16.00;;;2.95;;
51921;SDS011;37948;53.260;6.394;2023-01-04T09:29:17;11.60;;;3.13;;
51921;SDS011;37948;53.260;6.394;2023-01-04T09:31:43;17.65;;;3.33;;
51921;SDS011;37948;53.260;6.394;2023-01-04T09:34:08;17.67;;;3.65;;
51921;SDS011;37948;53.260;6.394;2023-01-04T09:36:36;17.20;;;3.33;;
51921;SDS011;37948;53.260;6.394;2023-01-04T09:39:02;16.30;;;3.80;;
51921;SDS011;37948;53.260;6.394;2023-01-04T09:41:29;15.73;;;3.97;;
51921;SDS011;37948;53.260;6.394;2023-01-04T09:47:17;17.35;;;4.85;;
51921;SDS011;37948;53.260;6.394;2023-01-04T09:49:51;20.70;;;4.40;;
51921;SDS011;37948;53.260;6.394;2023-01-04T09:55:44;26.83;;;4.93;;
51921;SDS011;37948;53.260;6.394;2023-01-04T10:06:30;26.45;;;4.28;;
51921;SDS011;37948;53.260;6.394;2023-01-04T10:08:58;22.70;;;4.32;;
51921;SDS011;37948;53.260;6.394;2023-01-04T10:14:50;22.25;;;4.47;;
51921;SDS011;37948;53.260;6.394;2023-01-04T10:17:18;19.10;;;3.80;;
51921;SDS011;37948;53.260;6.394;2023-01-04T10:20:28;24.48;;;4.85;;
51921;SDS011;37948;53.260;6.394;2023-01-04T10:23:20;21.98;;;4.30;;
51921;SDS011;37948;53.260;6.394;2023-01-04T10:26:07;25.50;;;3.63;;
51921;SDS011;37948;53.260;6.394;2023-01-04T10:36:38;32.97;;;6.13;;
51921;SDS011;37948;53.260;6.394;2023-01-04T10:39:04;27.17;;;5.43;;
51921;SDS011;37948;53.260;6.394;2023-01-04T10:41:59;29.50;;;3.70;;
51921;SDS011;37948;53.260;6.394;2023-01-04T10:44:33;28.40;;;5.38;;
51921;SDS011;37948;53.260;6.394;2023-01-04T10:47:22;27.92;;;5.07;;
51921;SDS011;37948;53.260;6.394;2023-01-04T10:50:07;32.00;;;5.68;;
51921;SDS011;37948;53.260;6.394;2023-01-04T10:52:52;34.13;;;6.13;;
51921;SDS011;37948;53.260;6.394;2023-01-04T10:55:48;38.15;;;4.78;;
51921;SDS011;37948;53.260;6.394;2023-01-04T10:58:43;28.35;;;5.97;;
51921;SDS011;37948;53.260;6.394;2023-01-04T11:01:18;33.00;;;6.82;;
51921;SDS011;37948;53.260;6.394;2023-01-04T11:06:27;30.60;;;5.63;;
51921;SDS011;37948;53.260;6.394;2023-01-04T11:09:02;33.42;;;6.53;;
51921;SDS011;37948;53.260;6.394;2023-01-04T11:11:43;31.43;;;5.83;;
51921;SDS011;37948;53.260;6.394;2023-01-04T11:14:10;37.55;;;6.38;;
51921;SDS011;37948;53.260;6.394;2023-01-04T11:16:38;42.50;;;7.03;;
51921;SDS011;37948;53.260;6.394;2023-01-04T11:19:07;37.00;;;5.88;;
51921;SDS011;37948;53.260;6.394;2023-01-04T11:21:36;36.85;;;6.85;;
51921;SDS011;37948;53.260;6.394;2023-01-04T11:24:08;32.08;;;5.20;;
51921;SDS011;37948;53.260;6.394;2023-01-04T11:26:36;24.33;;;4.97;;
51921;SDS011;37948;53.260;6.394;2023-01-04T11:29:06;23.15;;;4.40;;
51921;SDS011;37948;53.260;6.394;2023-01-04T11:31:56;22.80;;;4.38;;
51921;SDS011;37948;53.260;6.394;2023-01-04T11:34:42;27.13;;;4.28;;
51921;SDS011;37948;53.260;6.394;2023-01-04T11:42:45;29.65;;;5.80;;
51921;SDS011;37948;53.260;6.394;2023-01-04T11:45:25;29.83;;;6.38;;
51921;SDS011;37948;53.260;6.394;2023-01-04T11:47:55;30.98;;;8.00;;
51921;SDS011;37948;53.260;6.394;2023-01-04T11:50:32;28.67;;;6.28;;
51921;SDS011;37948;53.260;6.394;2023-01-04T11:53:00;35.78;;;5.57;;
51921;SDS011;37948;53.260;6.394;2023-01-04T11:55:26;31.25;;;5.75;;
51921;SDS011;37948;53.260;6.394;2023-01-04T12:00:34;28.77;;;5.47;;
51921;SDS011;37948;53.260;6.394;2023-01-04T12:03:12;31.45;;;5.80;;
51921;SDS011;37948;53.260;6.394;2023-01-04T12:05:39;28.75;;;4.53;;
51921;SDS011;37948;53.260;6.394;2023-01-04T12:08:05;26.13;;;4.78;;
51921;SDS011;37948;53.260;6.394;2023-01-04T12:10:36;28.98;;;5.10;;
51921;SDS011;37948;53.260;6.394;2023-01-04T12:13:01;33.83;;;4.63;;
51921;SDS011;37948;53.260;6.394;2023-01-04T12:15:35;29.42;;;4.72;;
51921;SDS011;37948;53.260;6.394;2023-01-04T12:18:13;24.70;;;4.65;;
51921;SDS011;37948;53.260;6.394;2023-01-04T12:20:43;21.27;;;3.88;;
51921;SDS011;37948;53.260;6.394;2023-01-04T12:23:10;31.92;;;6.10;;
51921;SDS011;37948;53.260;6.394;2023-01-04T12:25:38;20.20;;;4.10;;
51921;SDS011;37948;53.260;6.394;2023-01-04T12:28:27;22.23;;;3.65;;
51921;SDS011;37948;53.260;6.394;2023-01-04T12:30:54;23.00;;;3.95;;
51921;SDS011;37948;53.260;6.394;2023-01-04T12:33:40;25.90;;;5.35;;
51921;SDS011;37948;53.260;6.394;2023-01-04T12:36:12;17.27;;;4.28;;
51921;SDS011;37948;53.260;6.394;2023-01-04T12:50:07;16.27;;;2.90;;
51921;SDS011;37948;53.260;6.394;2023-01-04T12:52:42;12.38;;;3.35;;
51921;SDS011;37948;53.260;6.394;2023-01-04T12:57:48;14.90;;;3.13;;
51921;SDS011;37948;53.260;6.394;2023-01-04T13:00:14;12.30;;;2.88;;
51921;SDS011;37948;53.260;6.394;2023-01-04T13:02:41;14.73;;;3.08;;
51921;SDS011;37948;53.260;6.394;2023-01-04T13:07:52;14.37;;;3.47;;
51921;SDS011;37948;53.260;6.394;2023-01-04T13:13:06;15.30;;;3.47;;
51921;SDS011;37948;53.260;6.394;2023-01-04T13:21:12;12.50;;;3.00;;
51921;SDS011;37948;53.260;6.394;2023-01-04T13:23:39;18.27;;;3.50;;
51921;SDS011;37948;53.260;6.394;2023-01-04T13:26:25;17.05;;;3.30;;
51921;SDS011;37948;53.260;6.394;2023-01-04T13:29:12;17.45;;;2.95;;
51921;SDS011;37948;53.260;6.394;2023-01-04T13:31:51;26.33;;;3.95;;
51921;SDS011;37948;53.260;6.394;2023-01-04T13:37:28;21.30;;;3.55;;
51921;SDS011;37948;53.260;6.394;2023-01-04T13:42:46;24.77;;;5.53;;
51921;SDS011;37948;53.260;6.394;2023-01-04T13:45:35;18.02;;;4.25;;
51921;SDS011;37948;53.260;6.394;2023-01-04T13:48:16;18.65;;;3.97;;
51921;SDS011;37948;53.260;6.394;2023-01-04T13:50:45;24.02;;;5.20;;
51921;SDS011;37948;53.260;6.394;2023-01-04T13:53:52;24.67;;;4.60;;
51921;SDS011;37948;53.260;6.394;2023-01-04T13:56:22;21.58;;;4.22;;
51921;SDS011;37948;53.260;6.394;2023-01-04T13:58:49;27.55;;;5.22;;
51921;SDS011;37948;53.260;6.394;2023-01-04T14:01:18;19.55;;;4.15;;
51921;SDS011;37948;53.260;6.394;2023-01-04T14:03:50;22.90;;;4.10;;
51921;SDS011;37948;53.260;6.394;2023-01-04T14:06:21;32.70;;;5.32;;
51921;SDS011;37948;53.260;6.394;2023-01-04T14:08:57;23.63;;;4.80;;
51921;SDS011;37948;53.260;6.394;2023-01-04T14:11:34;28.95;;;4.97;;
51921;SDS011;37948;53.260;6.394;2023-01-04T14:22:36;32.88;;;6.70;;
51921;SDS011;37948;53.260;6.394;2023-01-04T14:30:47;47.45;;;12.95;;
51921;SDS011;37948;53.260;6.394;2023-01-04T14:46:26;28.00;;;5.80;;
51921;SDS011;37948;53.260;6.394;2023-01-04T14:48:52;24.95;;;4.88;;
51921;SDS011;37948;53.260;6.394;2023-01-04T14:51:20;25.55;;;5.72;;
51921;SDS011;37948;53.260;6.394;2023-01-04T14:53:48;27.48;;;5.70;;
51921;SDS011;37948;53.260;6.394;2023-01-04T14:56:16;20.70;;;4.60;;
51921;SDS011;37948;53.260;6.394;2023-01-04T14:58:42;28.85;;;6.03;;
51921;SDS011;37948;53.260;6.394;2023-01-04T15:01:09;25.33;;;5.20;;
51921;SDS011;37948;53.260;6.394;2023-01-04T15:03:36;30.50;;;5.90;;
51921;SDS011;37948;53.260;6.394;2023-01-04T15:06:02;18.63;;;5.80;;
51921;SDS011;37948;53.260;6.394;2023-01-04T15:08:28;27.58;;;6.22;;
51921;SDS011;37948;53.260;6.394;2023-01-04T15:10:54;28.25;;;5.88;;
51921;SDS011;37948;53.260;6.394;2023-01-04T15:13:20;22.52;;;5.93;;
51921;SDS011;37948;53.260;6.394;2023-01-04T15:15:45;31.70;;;6.78;;
51921;SDS011;37948;53.260;6.394;2023-01-04T15:18:11;29.50;;;6.18;;
51921;SDS011;37948;53.260;6.394;2023-01-04T15:20:39;30.17;;;6.40;;
51921;SDS011;37948;53.260;6.394;2023-01-04T15:23:05;25.30;;;5.72;;
51921;SDS011;37948;53.260;6.394;2023-01-04T15:25:31;24.35;;;5.70;;
51921;SDS011;37948;53.260;6.394;2023-01-04T15:27:57;33.22;;;5.32;;
51921;SDS011;37948;53.260;6.394;2023-01-04T15:30:22;23.13;;;5.05;;
51921;SDS011;37948;53.260;6.394;2023-01-04T15:32:48;27.50;;;4.43;;
51921;SDS011;37948;53.260;6.394;2023-01-04T15:35:14;27.42;;;5.53;;
51921;SDS011;37948;53.260;6.394;2023-01-04T15:37:44;28.33;;;5.68;;
51921;SDS011;37948;53.260;6.394;2023-01-04T15:40:11;19.63;;;3.42;;
51921;SDS011;37948;53.260;6.394;2023-01-04T15:42:39;22.35;;;4.53;;
51921;SDS011;37948;53.260;6.394;2023-01-04T15:45:22;25.27;;;5.10;;
51921;SDS011;37948;53.260;6.394;2023-01-04T15:47:49;32.28;;;5.90;;
51921;SDS011;37948;53.260;6.394;2023-01-04T15:50:15;25.73;;;5.10;;
51921;SDS011;37948;53.260;6.394;2023-01-04T15:52:42;29.77;;;5.63;;
51921;SDS011;37948;53.260;6.394;2023-01-04T15:55:08;26.30;;;4.95;;
51921;SDS011;37948;53.260;6.394;2023-01-04T15:57:33;25.52;;;4.22;;
51921;SDS011;37948;53.260;6.394;2023-01-04T15:59:59;28.90;;;4.18;;
51921;SDS011;37948;53.260;6.394;2023-01-04T16:02:24;27.30;;;4.93;;
51921;SDS011;37948;53.260;6.394;2023-01-04T16:04:50;32.00;;;5.28;;
51921;SDS011;37948;53.260;6.394;2023-01-04T16:07:16;24.98;;;4.75;;
51921;SDS011;37948;53.260;6.394;2023-01-04T16:09:43;26.60;;;4.82;;
51921;SDS011;37948;53.260;6.394;2023-01-04T16:12:08;28.35;;;5.53;;
51921;SDS011;37948;53.260;6.394;2023-01-04T16:14:53;25.98;;;5.20;;
51921;SDS011;37948;53.260;6.394;2023-01-04T16:17:18;21.27;;;5.15;;
51921;SDS011;37948;53.260;6.394;2023-01-04T16:19:44;26.80;;;5.47;;
51921;SDS011;37948;53.260;6.394;2023-01-04T16:22:10;23.95;;;5.65;;
51921;SDS011;37948;53.260;6.394;2023-01-04T16:24:35;25.63;;;5.45;;
51921;SDS011;37948;53.260;6.394;2023-01-04T16:27:01;39.83;;;5.90;;
51921;SDS011;37948;53.260;6.394;2023-01-04T16:29:26;26.10;;;5.35;;
51921;SDS011;37948;53.260;6.394;2023-01-04T16:31:52;23.73;;;3.95;;
51921;SDS011;37948;53.260;6.394;2023-01-04T16:34:17;36.90;;;6.15;;
51921;SDS011;37948;53.260;6.394;2023-01-04T16:36:44;29.20;;;4.78;;
51921;SDS011;37948;53.260;6.394;2023-01-04T16:39:12;31.60;;;6.70;;
51921;SDS011;37948;53.260;6.394;2023-01-04T16:41:37;24.92;;;4.90;;
51921;SDS011;37948;53.260;6.394;2023-01-04T16:44:03;28.50;;;5.97;;
51921;SDS011;37948;53.260;6.394;2023-01-04T16:46:30;31.73;;;4.97;;
51921;SDS011;37948;53.260;6.394;2023-01-04T16:49:03;27.33;;;4.30;;
51921;SDS011;37948;53.260;6.394;2023-01-04T16:51:30;31.48;;;5.75;;
51921;SDS011;37948;53.260;6.394;2023-01-04T16:53:57;29.27;;;4.43;;
51921;SDS011;37948;53.260;6.394;2023-01-04T16:56:25;32.95;;;6.88;;
51921;SDS011;37948;53.260;6.394;2023-01-04T16:58:50;31.85;;;5.85;;
51921;SDS011;37948;53.260;6.394;2023-01-04T17:01:17;28.17;;;5.90;;
51921;SDS011;37948;53.260;6.394;2023-01-04T17:03:45;28.45;;;5.22;;
51921;SDS011;37948;53.260;6.394;2023-01-04T17:06:12;39.85;;;6.70;;
51921;SDS011;37948;53.260;6.394;2023-01-04T17:11:10;26.58;;;5.18;;
51921;SDS011;37948;53.260;6.394;2023-01-04T17:13:38;27.95;;;5.03;;